Time;durP1;ratioP1;P1;durP2;ratioP2;P2;SDS_P1;SDS_P2;PMS_P1;PMS_P2;Temp;Humidity;BMP_temperature;BMP_pressure;BME280_temperature;BME280_humidity;BME280_pressure;Samples;Min_cycle;Max_cycle;Signal;HPM_P1;HPM_P2
2021/04/30 00:01:11;;;;;;;12.07;8.40;;;;;;;;;;5112656;28;20172;-82
2021/04/30 00:03:37;;;;;;;14.75;8.52;;;;;;;;;;5111104;27;20077;-80
2021/04/30 00:06:03;;;;;;;14.27;8.38;;;;;;;;;;5111040;28;20400;-81
2021/04/30 00:08:29;;;;;;;15.70;8.15;;;;;;;;;;5110676;28;20221;-81
2021/04/30 00:10:55;;;;;;;16.90;9.88;;;;;;;;;;5111505;28;20485;-82
2021/04/30 00:13:21;;;;;;;12.43;8.85;;;;;;;;;;5092448;28;20024;-81
2021/04/30 00:15:47;;;;;;;12.63;8.40;;;;;;;;;;5097682;28;20488;-81
2021/04/30 00:18:13;;;;;;;16.95;9.18;;;;;;;;;;5112164;28;20093;-81
2021/04/30 00:20:46;;;;;;;14.32;9.23;;;;;;;;;;5112414;28;20020;-80
2021/04/30 00:23:12;;;;;;;15.00;8.93;;;;;;;;;;5112059;28;20023;-81
2021/04/30 00:25:41;;;;;;;12.88;9.25;;;;;;;;;;5111372;27;20036;-81
2021/04/30 00:28:07;;;;;;;17.85;10.05;;;;;;;;;;5112103;28;20098;-81
2021/04/30 00:30:34;;;;;;;15.70;9.32;;;;;;;;;;5111000;28;20489;-81
2021/04/30 00:33:00;;;;;;;13.55;9.02;;;;;;;;;;5112130;28;20081;-81
2021/04/30 00:35:26;;;;;;;17.25;9.15;;;;;;;;;;5110156;28;20035;-79
2021/04/30 00:37:52;;;;;;;18.67;9.32;;;;;;;;;;5111897;28;20024;-81
2021/04/30 00:40:18;;;;;;;14.13;8.93;;;;;;;;;;5111418;28;20031;-81
2021/04/30 00:42:44;;;;;;;16.65;9.05;;;;;;;;;;5112349;28;20034;-81
2021/04/30 00:45:15;;;;;;;15.65;8.52;;;;;;;;;;5111707;27;20044;-81
2021/04/30 00:47:41;;;;;;;14.20;8.80;;;;;;;;;;5111627;28;20023;-81
2021/04/30 00:50:08;;;;;;;11.20;7.85;;;;;;;;;;5111594;28;20027;-81
2021/04/30 00:52:37;;;;;;;12.70;8.68;;;;;;;;;;5111985;28;20072;-82
2021/04/30 00:55:07;;;;;;;11.75;8.63;;;;;;;;;;5111344;28;20035;-81
2021/04/30 00:57:33;;;;;;;12.38;8.35;;;;;;;;;;5111200;28;20592;-80
2021/04/30 00:59:59;;;;;;;13.00;8.50;;;;;;;;;;5128243;27;20026;-81
2021/04/30 01:02:25;;;;;;;16.55;8.43;;;;;;;;;;5131148;27;20027;-81
2021/04/30 01:04:51;;;;;;;15.30;8.82;;;;;;;;;;5114310;27;20389;-81
2021/04/30 01:07:18;;;;;;;14.77;8.07;;;;;;;;;;5111699;27;20034;-82
2021/04/30 01:09:44;;;;;;;11.60;8.18;;;;;;;;;;5110228;28;20394;-82
2021/04/30 01:12:10;;;;;;;11.70;7.90;;;;;;;;;;5109687;28;20072;-82
2021/04/30 01:14:36;;;;;;;12.87;8.60;;;;;;;;;;5111809;28;20062;-82
2021/04/30 01:17:02;;;;;;;12.48;8.45;;;;;;;;;;5111291;27;20044;-82
2021/04/30 01:19:30;;;;;;;10.10;7.73;;;;;;;;;;5111196;28;20055;-82
2021/04/30 01:21:56;;;;;;;14.65;8.10;;;;;;;;;;5110586;28;20473;-82
2021/04/30 01:24:23;;;;;;;13.18;8.05;;;;;;;;;;5110523;28;20032;-83
2021/04/30 01:26:50;;;;;;;10.95;7.80;;;;;;;;;;5109290;28;20057;-82
2021/04/30 01:29:16;;;;;;;11.75;7.45;;;;;;;;;;5110056;28;20082;-82
2021/04/30 01:31:42;;;;;;;13.23;7.50;;;;;;;;;;5109771;28;20027;-83
2021/04/30 01:34:09;;;;;;;12.07;7.70;;;;;;;;;;5111353;28;20426;-82
2021/04/30 01:36:35;;;;;;;10.10;7.68;;;;;;;;;;5111038;28;20031;-82
2021/04/30 01:39:02;;;;;;;12.20;8.02;;;;;;;;;;5108479;28;20070;-83
2021/04/30 01:41:28;;;;;;;;;;;;;;;;;;5111335;28;20076;-82
2021/04/30 01:43:54;;;;;;;10.53;7.13;;;;;;;;;;5111068;28;19911;-82
2021/04/30 01:46:20;;;;;;;10.20;6.80;;;;;;;;;;5110094;28;20377;-81
2021/04/30 01:48:46;;;;;;;14.18;7.75;;;;;;;;;;5110879;27;20110;-80
2021/04/30 01:51:13;;;;;;;10.45;7.35;;;;;;;;;;5111284;28;20053;-80
2021/04/30 01:53:39;;;;;;;12.50;7.77;;;;;;;;;;5110692;28;20051;-80
2021/04/30 01:56:09;;;;;;;10.90;7.45;;;;;;;;;;5109777;28;20602;-79
2021/04/30 01:58:36;;;;;;;11.32;7.05;;;;;;;;;;5110372;27;20039;-80
2021/04/30 02:01:02;;;;;;;12.68;6.93;;;;;;;;;;5111226;28;20134;-81
2021/04/30 02:03:28;;;;;;;12.63;7.50;;;;;;;;;;5110729;28;20103;-80
2021/04/30 02:05:55;;;;;;;12.48;7.32;;;;;;;;;;5110179;28;20023;-80
2021/04/30 02:08:21;;;;;;;10.77;6.93;;;;;;;;;;5110877;27;20031;-80
2021/04/30 02:10:47;;;;;;;10.53;7.27;;;;;;;;;;5110917;28;20114;-80
2021/04/30 02:13:16;;;;;;;11.73;7.07;;;;;;;;;;5112217;28;20028;-80
2021/04/30 02:15:43;;;;;;;9.32;6.75;;;;;;;;;;5111093;28;20023;-80
2021/04/30 02:18:09;;;;;;;9.52;6.55;;;;;;;;;;5110976;28;20020;-80
2021/04/30 02:20:36;;;;;;;18.30;7.25;;;;;;;;;;5108721;27;20401;-80
2021/04/30 02:23:01;;;;;;;11.33;7.03;;;;;;;;;;5111132;28;20631;-81
2021/04/30 02:25:28;;;;;;;9.80;6.78;;;;;;;;;;5108257;28;20020;-79
2021/04/30 02:27:55;;;;;;;9.85;6.63;;;;;;;;;;5110857;28;20031;-80
2021/04/30 02:30:22;;;;;;;11.45;7.20;;;;;;;;;;5106647;27;20081;-80
2021/04/30 02:32:48;;;;;;;11.27;6.80;;;;;;;;;;5110924;28;20024;-79
2021/04/30 02:35:16;;;;;;;10.43;7.22;;;;;;;;;;5110785;28;20062;-81
2021/04/30 02:37:43;;;;;;;8.55;6.75;;;;;;;;;;5110397;28;20031;-81
2021/04/30 02:40:10;;;;;;;10.80;6.50;;;;;;;;;;5109074;28;20088;-81
2021/04/30 02:42:36;;;;;;;10.60;6.50;;;;;;;;;;5109323;28;20081;-81
2021/04/30 02:45:04;;;;;;;10.97;6.23;;;;;;;;;;5109803;28;20111;-81
2021/04/30 02:47:31;;;;;;;9.05;6.28;;;;;;;;;;5110883;28;20457;-81
2021/04/30 02:50:01;;;;;;;7.90;6.40;;;;;;;;;;5109969;27;20389;-82
2021/04/30 02:52:27;;;;;;;8.45;6.30;;;;;;;;;;5108180;28;20055;-82
2021/04/30 02:54:53;;;;;;;8.70;5.90;;;;;;;;;;5114635;28;20105;-82
2021/04/30 02:57:19;;;;;;;10.20;6.55;;;;;;;;;;5113394;28;20355;-81
2021/04/30 02:59:46;;;;;;;9.32;6.20;;;;;;;;;;5113600;28;20023;-81
2021/04/30 03:02:13;;;;;;;12.80;6.57;;;;;;;;;;5113867;27;20055;-81
2021/04/30 03:04:39;;;;;;;;;;;;;;;;;;5114445;28;20272;-81
2021/04/30 03:07:05;;;;;;;8.30;5.93;;;;;;;;;;5113733;28;20244;-81
2021/04/30 03:09:31;;;;;;;10.90;6.63;;;;;;;;;;5113420;27;20043;-80
2021/04/30 03:11:57;;;;;;;9.63;6.43;;;;;;;;;;5113855;27;20523;-81
2021/04/30 03:14:23;;;;;;;9.40;6.07;;;;;;;;;;5113485;28;20028;-81
2021/04/30 03:16:49;;;;;;;9.20;6.05;;;;;;;;;;5112778;28;20322;-81
2021/04/30 03:19:15;;;;;;;9.10;5.97;;;;;;;;;;5113821;28;20373;-80
2021/04/30 03:21:41;;;;;;;7.47;6.07;;;;;;;;;;5112184;27;20435;-81
2021/04/30 03:24:07;;;;;;;8.68;5.82;;;;;;;;;;5114106;28;20077;-80
2021/04/30 03:26:34;;;;;;;10.10;5.90;;;;;;;;;;5114411;28;20069;-80
2021/04/30 03:29:00;;;;;;;11.57;5.80;;;;;;;;;;5112998;28;20557;-80
2021/04/30 03:31:26;;;;;;;8.18;5.80;;;;;;;;;;5113630;28;20028;-79
2021/04/30 03:33:52;;;;;;;11.02;6.13;;;;;;;;;;5113470;27;20057;-80
2021/04/30 03:36:19;;;;;;;8.23;5.68;;;;;;;;;;5112618;28;20023;-79
2021/04/30 03:38:46;;;;;;;8.02;5.80;;;;;;;;;;5113084;28;20019;-78
2021/04/30 03:41:12;;;;;;;8.43;5.63;;;;;;;;;;5113445;28;20563;-81
2021/04/30 03:43:38;;;;;;;9.68;5.75;;;;;;;;;;5113136;27;20553;-80
2021/04/30 03:46:04;;;;;;;9.48;5.72;;;;;;;;;;5113206;28;20031;-79
2021/04/30 03:48:31;;;;;;;8.95;5.97;;;;;;;;;;5113144;28;20035;-80
2021/04/30 03:50:57;;;;;;;10.15;5.53;;;;;;;;;;5112350;28;20175;-79
2021/04/30 03:53:23;;;;;;;9.05;6.10;;;;;;;;;;5113463;27;20042;-81
2021/04/30 03:55:50;;;;;;;8.80;5.63;;;;;;;;;;5107519;28;20035;-80
2021/04/30 03:58:16;;;;;;;9.98;5.97;;;;;;;;;;5112931;28;20595;-80
2021/04/30 04:00:42;;;;;;;10.00;5.43;;;;;;;;;;5112350;28;20405;-81
2021/04/30 04:03:08;;;;;;;8.60;5.75;;;;;;;;;;5092427;28;20024;-80
2021/04/30 04:05:34;;;;;;;9.68;5.60;;;;;;;;;;5109989;28;20028;-82
2021/04/30 04:08:00;;;;;;;8.18;5.35;;;;;;;;;;5113095;28;20024;-81
2021/04/30 04:10:26;;;;;;;9.32;5.80;;;;;;;;;;5111062;28;20443;-81
2021/04/30 04:12:52;;;;;;;6.95;5.40;;;;;;;;;;5111847;28;20031;-82
2021/04/30 04:15:18;;;;;;;6.53;4.90;;;;;;;;;;5115506;27;20485;-81
2021/04/30 04:17:44;;;;;;;8.30;5.40;;;;;;;;;;5132791;27;20083;-82
2021/04/30 04:20:10;;;;;;;11.43;5.18;;;;;;;;;;5117065;27;20026;-78
2021/04/30 04:22:36;;;;;;;7.30;5.25;;;;;;;;;;5111724;28;20027;-82
2021/04/30 04:25:03;;;;;;;10.35;5.65;;;;;;;;;;5112460;28;20565;-80
2021/04/30 04:27:29;;;;;;;8.35;5.13;;;;;;;;;;5111773;28;20023;-80
2021/04/30 04:29:55;;;;;;;8.30;5.00;;;;;;;;;;5112323;28;20055;-81
2021/04/30 04:32:21;;;;;;;7.57;5.47;;;;;;;;;;5092232;28;20519;-81
2021/04/30 04:34:47;;;;;;;8.07;5.35;;;;;;;;;;5101524;28;20389;-81
2021/04/30 04:37:13;;;;;;;7.75;4.85;;;;;;;;;;5114284;28;20028;-81
2021/04/30 04:39:39;;;;;;;7.20;4.60;;;;;;;;;;5112262;28;20480;-80
2021/04/30 04:42:06;;;;;;;5.20;3.40;;;;;;;;;;5110787;27;20036;-79
2021/04/30 04:44:32;;;;;;;5.25;3.47;;;;;;;;;;5111562;28;20520;-80
2021/04/30 04:46:58;;;;;;;4.70;3.00;;;;;;;;;;5112110;27;20089;-80
2021/04/30 04:49:24;;;;;;;3.83;2.73;;;;;;;;;;5111608;28;20034;-80
2021/04/30 04:51:51;;;;;;;4.03;2.78;;;;;;;;;;5111725;28;20661;-80
2021/04/30 04:54:17;;;;;;;2.87;2.50;;;;;;;;;;5112104;28;20457;-80
2021/04/30 04:56:43;;;;;;;2.50;2.30;;;;;;;;;;5111974;27;20280;-82
2021/04/30 04:59:09;;;;;;;3.58;2.40;;;;;;;;;;5110380;28;20015;-81
2021/04/30 05:01:35;;;;;;;2.47;2.20;;;;;;;;;;5109974;28;20408;-80
2021/04/30 05:04:02;;;;;;;2.50;1.98;;;;;;;;;;5110257;28;20031;-80
2021/04/30 05:06:28;;;;;;;5.78;2.17;;;;;;;;;;5108321;27;20046;-80
2021/04/30 05:08:54;;;;;;;13.38;3.00;;;;;;;;;;5109537;28;20028;-79
2021/04/30 05:11:20;;;;;;;18.88;2.65;;;;;;;;;;5112390;27;20078;-81
2021/04/30 05:13:46;;;;;;;6.00;2.30;;;;;;;;;;5103152;28;20027;-86
2021/04/30 05:16:13;;;;;;;5.97;2.05;;;;;;;;;;5111141;27;20044;-88
2021/04/30 05:18:39;;;;;;;14.30;2.15;;;;;;;;;;5112918;27;20041;-81
2021/04/30 05:21:06;;;;;;;4.07;2.10;;;;;;;;;;5110848;28;20036;-85
2021/04/30 05:23:34;;;;;;;9.10;2.60;;;;;;;;;;5110074;28;20296;-82
2021/04/30 05:25:59;;;;;;;5.80;2.00;;;;;;;;;;5105102;28;20020;-81
2021/04/30 05:28:25;;;;;;;7.68;2.10;;;;;;;;;;5102517;28;20063;-84
2021/04/30 05:30:51;;;;;;;12.75;2.35;;;;;;;;;;5104607;28;20032;-91
2021/04/30 05:33:17;;;;;;;14.57;3.38;;;;;;;;;;5115122;27;20031;-85
2021/04/30 05:35:43;;;;;;;7.22;1.98;;;;;;;;;;5107929;28;20038;-83
2021/04/30 05:38:09;;;;;;;2.75;1.75;;;;;;;;;;5111003;27;20373;-84
2021/04/30 05:40:36;;;;;;;5.43;1.80;;;;;;;;;;5110190;28;20081;-85
2021/04/30 05:43:02;;;;;;;3.47;1.90;;;;;;;;;;5110441;28;20322;-84
2021/04/30 05:45:28;;;;;;;2.13;1.90;;;;;;;;;;5110785;28;20038;-83
2021/04/30 05:47:54;;;;;;;2.72;2.08;;;;;;;;;;5111235;27;20039;-84
2021/04/30 05:50:20;;;;;;;2.83;1.83;;;;;;;;;;5111824;28;20169;-84
2021/04/30 05:52:46;;;;;;;2.00;1.70;;;;;;;;;;5110841;28;20027;-82
2021/04/30 05:55:12;;;;;;;3.25;1.75;;;;;;;;;;5111174;28;20039;-84
2021/04/30 05:57:38;;;;;;;6.13;2.00;;;;;;;;;;5109319;27;20050;-84
2021/04/30 06:00:06;;;;;;;5.40;2.20;;;;;;;;;;5111137;28;20027;-82
2021/04/30 06:02:32;;;;;;;3.13;1.88;;;;;;;;;;5111225;28;20023;-84
2021/04/30 06:04:58;;;;;;;2.95;1.90;;;;;;;;;;5111191;28;20072;-84
2021/04/30 06:07:24;;;;;;;4.65;2.00;;;;;;;;;;5110982;28;20023;-83
2021/04/30 06:09:50;;;;;;;1.70;1.60;;;;;;;;;;5109535;28;20081;-84
2021/04/30 06:12:16;;;;;;;2.00;1.70;;;;;;;;;;5109073;28;20026;-82
2021/04/30 06:14:42;;;;;;;3.72;2.00;;;;;;;;;;5126797;28;20034;-83
2021/04/30 06:17:08;;;;;;;2.05;1.70;;;;;;;;;;5131650;27;20402;-84
2021/04/30 06:19:35;;;;;;;2.95;1.70;;;;;;;;;;5130960;27;20036;-83
2021/04/30 06:22:01;;;;;;;2.20;2.00;;;;;;;;;;5131655;27;20487;-84
2021/04/30 06:24:27;;;;;;;2.33;1.80;;;;;;;;;;5129855;28;20456;-83
2021/04/30 06:26:53;;;;;;;2.25;1.70;;;;;;;;;;5131412;27;20027;-82
2021/04/30 06:29:19;;;;;;;2.17;1.65;;;;;;;;;;5112998;27;20096;-83
2021/04/30 06:31:45;;;;;;;2.53;1.70;;;;;;;;;;5114997;28;20786;-84
2021/04/30 06:34:11;;;;;;;4.20;1.90;;;;;;;;;;5111069;28;20101;-82
2021/04/30 06:36:38;;;;;;;2.33;1.80;;;;;;;;;;5092970;28;20572;-84
2021/04/30 06:39:04;;;;;;;1.80;1.70;;;;;;;;;;5094469;28;20079;-84
2021/04/30 06:41:30;;;;;;;2.80;1.88;;;;;;;;;;5092424;28;20270;-83
2021/04/30 06:43:56;;;;;;;2.80;2.25;;;;;;;;;;5098721;28;20492;-84
2021/04/30 06:46:23;;;;;;;2.08;1.92;;;;;;;;;;5114516;28;20098;-83
2021/04/30 06:48:50;;;;;;;2.00;1.90;;;;;;;;;;5114274;27;20462;-83
2021/04/30 06:51:16;;;;;;;3.20;2.10;;;;;;;;;;5113181;28;20043;-83
2021/04/30 06:53:43;;;;;;;3.17;2.10;;;;;;;;;;5112742;28;20103;-84
2021/04/30 06:56:09;;;;;;;2.13;1.92;;;;;;;;;;5114498;28;20493;-83
2021/04/30 06:58:35;;;;;;;2.37;2.00;;;;;;;;;;5110558;28;20370;-82
2021/04/30 07:01:01;;;;;;;2.67;2.08;;;;;;;;;;5093923;28;20036;-84
2021/04/30 07:03:27;;;;;;;1.92;1.83;;;;;;;;;;5093488;28;20101;-83
2021/04/30 07:05:53;;;;;;;3.92;2.10;;;;;;;;;;5092924;28;20158;-84
2021/04/30 07:08:19;;;;;;;1.90;1.80;;;;;;;;;;5093442;28;20519;-84
2021/04/30 07:10:45;;;;;;;3.53;1.90;;;;;;;;;;5093622;28;20044;-84
2021/04/30 07:13:11;;;;;;;2.10;1.90;;;;;;;;;;5094680;28;20030;-83
2021/04/30 07:15:38;;;;;;;2.33;1.90;;;;;;;;;;5109981;28;20084;-83
2021/04/30 07:18:04;;;;;;;2.93;2.20;;;;;;;;;;5113485;28;20026;-84
2021/04/30 07:20:31;;;;;;;3.10;2.10;;;;;;;;;;5113723;27;20027;-83
2021/04/30 07:22:58;;;;;;;2.53;2.10;;;;;;;;;;5114111;28;20058;-82
2021/04/30 07:25:24;;;;;;;2.55;2.17;;;;;;;;;;5112519;28;20035;-83
2021/04/30 07:27:50;;;;;;;2.13;1.98;;;;;;;;;;5112688;28;20423;-84
2021/04/30 07:30:16;;;;;;;5.00;2.30;;;;;;;;;;5112052;28;20048;-83
2021/04/30 07:32:42;;;;;;;2.43;2.20;;;;;;;;;;5113807;28;20016;-83
2021/04/30 07:35:08;;;;;;;3.60;2.33;;;;;;;;;;5113485;28;20028;-84
2021/04/30 07:37:34;;;;;;;2.42;2.20;;;;;;;;;;5118539;27;20034;-83
2021/04/30 07:40:01;;;;;;;2.33;2.10;;;;;;;;;;5133594;27;20027;-83
2021/04/30 07:42:27;;;;;;;2.72;2.30;;;;;;;;;;5133686;27;20065;-83
2021/04/30 07:44:53;;;;;;;3.35;2.58;;;;;;;;;;5132711;27;20381;-84
2021/04/30 07:47:19;;;;;;;3.83;3.03;;;;;;;;;;5132670;27;20023;-84
2021/04/30 07:49:45;;;;;;;3.22;2.53;;;;;;;;;;5116653;27;20032;-84
2021/04/30 07:52:11;;;;;;;3.78;2.30;;;;;;;;;;5099901;28;20046;-87
2021/04/30 07:54:37;;;;;;;2.22;1.90;;;;;;;;;;5101847;28;20033;-86
2021/04/30 07:57:05;;;;;;;1.90;1.80;;;;;;;;;;5098059;28;20035;-84
2021/04/30 07:59:31;;;;;;;2.85;2.03;;;;;;;;;;5112283;28;20055;-82
2021/04/30 08:01:56;;;;;;;3.47;2.45;;;;;;;;;;5100080;28;20060;-85
2021/04/30 08:04:23;;;;;;;10.25;2.40;;;;;;;;;;5097799;28;20031;-79
2021/04/30 08:06:49;;;;;;;3.55;2.40;;;;;;;;;;5111041;28;20095;-81
2021/04/30 08:09:15;;;;;;;3.47;2.38;;;;;;;;;;5092513;28;20114;-79
2021/04/30 08:11:42;;;;;;;4.57;2.50;;;;;;;;;;5108712;27;20035;-80
2021/04/30 08:14:08;;;;;;;3.95;2.30;;;;;;;;;;5100455;27;20032;-78
2021/04/30 08:16:34;;;;;;;3.07;2.40;;;;;;;;;;5109388;27;20016;-74
2021/04/30 08:19:00;;;;;;;5.90;2.60;;;;;;;;;;5130120;27;20484;-76
2021/04/30 08:21:27;;;;;;;2.90;2.38;;;;;;;;;;5111525;27;20619;-74
2021/04/30 08:23:53;;;;;;;3.38;2.70;;;;;;;;;;5107353;27;20140;-74
2021/04/30 08:26:19;;;;;;;3.05;2.42;;;;;;;;;;5110961;28;20027;-75
2021/04/30 08:28:45;;;;;;;2.67;2.20;;;;;;;;;;5110446;28;20045;-75
2021/04/30 08:31:11;;;;;;;3.20;2.35;;;;;;;;;;5111674;27;20559;-75
2021/04/30 08:33:37;;;;;;;4.03;2.45;;;;;;;;;;5111156;27;20075;-74
2021/04/30 08:36:03;;;;;;;4.43;2.40;;;;;;;;;;5112370;28;20444;-74
2021/04/30 08:38:29;;;;;;;4.53;2.30;;;;;;;;;;5107164;28;20022;-74
2021/04/30 08:40:57;;;;;;;3.28;2.50;;;;;;;;;;5112471;28;20032;-75
2021/04/30 08:43:23;;;;;;;3.38;2.13;;;;;;;;;;5099020;28;20071;-74
2021/04/30 08:45:54;;;;;;;2.22;2.00;;;;;;;;;;5091604;28;20070;-75
2021/04/30 08:48:20;;;;;;;2.47;2.03;;;;;;;;;;5101617;28;20036;-75
2021/04/30 08:50:47;;;;;;;3.15;2.17;;;;;;;;;;5111279;28;20134;-74
2021/04/30 08:53:13;;;;;;;3.15;2.20;;;;;;;;;;5112082;28;20030;-74
2021/04/30 08:55:39;;;;;;;2.42;2.10;;;;;;;;;;5111344;27;20040;-74
2021/04/30 08:58:08;;;;;;;2.92;2.20;;;;;;;;;;5091489;28;20477;-74
2021/04/30 09:00:34;;;;;;;3.13;2.20;;;;;;;;;;5091572;28;20024;-75
2021/04/30 09:03:00;;;;;;;2.58;1.95;;;;;;;;;;5091751;28;20044;-76
2021/04/30 09:05:29;;;;;;;8.43;2.20;;;;;;;;;;5092070;28;20029;-75
2021/04/30 09:07:56;;;;;;;2.83;2.28;;;;;;;;;;5094206;28;20138;-74
2021/04/30 09:10:23;;;;;;;2.42;2.10;;;;;;;;;;5096204;28;20032;-76
2021/04/30 09:13:06;;;;;;;2.75;2.28;;;;;;;;;;5103495;28;20094;-75
2021/04/30 09:15:32;;;;;;;2.80;2.22;;;;;;;;;;5108072;28;20111;-75
2021/04/30 09:18:17;;;;;;;2.85;2.40;;;;;;;;;;5091571;28;20032;-75
2021/04/30 09:20:47;;;;;;;2.97;2.25;;;;;;;;;;5091244;28;20020;-75
2021/04/30 09:23:32;;;;;;;3.03;2.30;;;;;;;;;;5092179;28;20439;-76
2021/04/30 09:25:58;;;;;;;5.18;2.00;;;;;;;;;;5091357;28;20047;-74
2021/04/30 09:28:24;;;;;;;3.90;2.50;;;;;;;;;;5102003;28;20024;-75
2021/04/30 09:30:51;;;;;;;3.25;2.50;;;;;;;;;;5105059;28;20128;-75
2021/04/30 09:33:18;;;;;;;3.72;2.40;;;;;;;;;;5105848;28;20421;-75
2021/04/30 09:35:51;;;;;;;3.03;2.50;;;;;;;;;;5129889;27;20099;-75
2021/04/30 09:38:30;;;;;;;3.20;2.40;;;;;;;;;;5124691;27;20469;-76
2021/04/30 09:41:02;;;;;;;3.63;2.50;;;;;;;;;;5103863;28;20028;-75
2021/04/30 09:43:40;;;;;;;3.28;2.30;;;;;;;;;;5090409;28;20434;-75
2021/04/30 09:46:25;;;;;;;2.10;1.90;;;;;;;;;;5090679;28;20037;-74
2021/04/30 09:49:08;;;;;;;4.50;1.92;;;;;;;;;;5115079;27;20123;-75
2021/04/30 09:51:45;;;;;;;2.38;2.15;;;;;;;;;;5109074;28;20039;-74
2021/04/30 09:54:17;;;;;;;2.42;2.10;;;;;;;;;;5111096;28;20024;-75
2021/04/30 09:56:43;;;;;;;2.17;1.80;;;;;;;;;;5110366;27;20498;-75
2021/04/30 09:59:08;;;;;;;2.33;2.08;;;;;;;;;;5123343;28;20030;-75
2021/04/30 10:01:34;;;;;;;1.88;1.77;;;;;;;;;;5128219;27;20023;-74
2021/04/30 10:04:00;;;;;;;4.03;1.90;;;;;;;;;;5109348;27;20085;-74
2021/04/30 10:06:27;;;;;;;2.38;2.00;;;;;;;;;;5094983;27;20473;-73
2021/04/30 10:09:10;;;;;;;2.50;1.92;;;;;;;;;;5112415;27;20035;-74
2021/04/30 10:11:36;;;;;;;4.13;2.20;;;;;;;;;;5111378;27;20039;-74
2021/04/30 10:14:02;;;;;;;4.18;2.13;;;;;;;;;;5104362;28;20028;-76
2021/04/30 10:16:29;;;;;;;5.15;2.20;;;;;;;;;;5113043;27;20074;-76
2021/04/30 10:18:55;;;;;;;3.15;2.33;;;;;;;;;;5103281;28;20020;-75
2021/04/30 10:21:21;;;;;;;4.60;2.00;;;;;;;;;;5095144;28;20115;-74
2021/04/30 10:23:49;;;;;;;4.15;2.30;;;;;;;;;;5111999;27;20055;-75
2021/04/30 10:26:19;;;;;;;3.92;2.30;;;;;;;;;;5110825;28;20077;-75
2021/04/30 10:28:50;;;;;;;2.85;2.05;;;;;;;;;;5112622;27;20035;-76
2021/04/30 10:31:18;;;;;;;2.92;1.83;;;;;;;;;;5113167;28;20040;-74
2021/04/30 10:33:46;;;;;;;3.13;2.08;;;;;;;;;;5113176;28;20106;-75
2021/04/30 10:36:15;;;;;;;2.50;2.30;;;;;;;;;;5113280;28;20028;-75
2021/04/30 10:38:43;;;;;;;3.72;2.13;;;;;;;;;;5112904;27;20031;-75
2021/04/30 10:41:10;;;;;;;3.00;2.28;;;;;;;;;;5114841;27;20057;-75
2021/04/30 10:43:37;;;;;;;4.85;2.30;;;;;;;;;;5113882;27;20114;-75
2021/04/30 10:46:03;;;;;;;3.15;2.38;;;;;;;;;;5113292;28;20023;-74
2021/04/30 10:48:30;;;;;;;9.02;2.67;;;;;;;;;;5118104;27;20085;-74
2021/04/30 10:51:29;;;;;;;4.72;2.42;;;;;;;;;;5112433;28;20541;-74
2021/04/30 10:54:15;;;;;;;4.68;2.30;;;;;;;;;;5065656;28;20032;-74
2021/04/30 10:56:40;;;;;;;5.30;2.10;;;;;;;;;;5112463;28;20049;-75
2021/04/30 10:59:08;;;;;;;3.00;2.10;;;;;;;;;;5120027;27;20280;-74
2021/04/30 11:01:36;;;;;;;4.50;2.15;;;;;;;;;;5116030;27;20434;-75
2021/04/30 11:04:08;;;;;;;4.47;2.30;;;;;;;;;;5108249;27;20034;-74
2021/04/30 11:06:35;;;;;;;3.00;2.13;;;;;;;;;;5093568;28;20107;-74
2021/04/30 11:09:05;;;;;;;2.90;2.10;;;;;;;;;;5093189;28;20040;-74
2021/04/30 11:11:32;;;;;;;3.03;2.20;;;;;;;;;;5106603;28;20510;-75
2021/04/30 11:14:17;;;;;;;3.72;2.40;;;;;;;;;;5112296;28;20503;-75
2021/04/30 11:16:43;;;;;;;4.85;2.35;;;;;;;;;;5110179;28;20477;-75
2021/04/30 11:19:09;;;;;;;3.85;2.10;;;;;;;;;;5111370;27;20058;-74
2021/04/30 11:21:42;;;;;;;4.57;2.17;;;;;;;;;;5109444;28;20023;-74
2021/04/30 11:24:27;;;;;;;3.35;2.33;;;;;;;;;;5113572;28;20569;-75
2021/04/30 11:27:07;;;;;;;4.53;2.13;;;;;;;;;;5113292;28;20034;-74
2021/04/30 11:29:33;;;;;;;3.00;2.33;;;;;;;;;;5112998;27;20044;-75
2021/04/30 11:32:18;;;;;;;3.08;2.42;;;;;;;;;;5112891;28;20034;-75
2021/04/30 11:34:51;;;;;;;4.75;2.70;;;;;;;;;;5099171;28;20028;-75
2021/04/30 11:37:18;;;;;;;3.33;2.20;;;;;;;;;;5092943;28;20099;-76
2021/04/30 11:39:44;;;;;;;;;;;;;;;;;;5092943;28;20051;-76
2021/04/30 11:42:12;;;;;;;5.10;2.60;;;;;;;;;;5112385;28;19916;-75
2021/04/30 11:44:38;;;;;;;5.38;2.30;;;;;;;;;;5107674;28;20016;-75
2021/04/30 11:47:05;;;;;;;2.55;2.35;;;;;;;;;;5093021;28;20432;-75
2021/04/30 11:49:35;;;;;;;3.92;2.25;;;;;;;;;;5100681;28;20062;-75
2021/04/30 11:52:02;;;;;;;4.75;2.60;;;;;;;;;;5092985;28;20028;-75
2021/04/30 11:54:29;;;;;;;3.30;2.42;;;;;;;;;;5109524;28;20023;-76
2021/04/30 11:56:59;;;;;;;3.35;2.40;;;;;;;;;;5126793;27;20054;-75
2021/04/30 11:59:25;;;;;;;2.78;2.30;;;;;;;;;;5133345;27;20023;-76
2021/04/30 12:01:54;;;;;;;3.53;2.30;;;;;;;;;;5132897;27;20063;-75
2021/04/30 12:04:40;;;;;;;3.80;2.20;;;;;;;;;;5119394;27;20319;-75
2021/04/30 12:07:06;;;;;;;3.05;2.17;;;;;;;;;;5111127;28;20145;-75
2021/04/30 12:09:32;;;;;;;3.92;1.90;;;;;;;;;;5111432;28;20445;-75
2021/04/30 12:12:11;;;;;;;2.55;2.20;;;;;;;;;;5111576;27;20055;-75
2021/04/30 12:14:57;;;;;;;2.42;2.08;;;;;;;;;;5112104;28;20015;-75
2021/04/30 12:17:28;;;;;;;2.97;2.00;;;;;;;;;;5112312;28;20037;-76
2021/04/30 12:19:58;;;;;;;3.75;2.10;;;;;;;;;;5110400;28;20027;-75
2021/04/30 12:22:24;;;;;;;4.45;2.10;;;;;;;;;;5111849;27;20157;-75
2021/04/30 12:24:50;;;;;;;3.90;2.10;;;;;;;;;;5096780;28;20485;-75
2021/04/30 12:27:29;;;;;;;2.65;1.90;;;;;;;;;;5102284;28;20108;-75
2021/04/30 12:29:56;;;;;;;2.58;2.00;;;;;;;;;;5106565;28;20107;-75
2021/04/30 12:32:22;;;;;;;3.10;2.28;;;;;;;;;;5113377;27;20494;-75
2021/04/30 12:34:49;;;;;;;4.47;2.20;;;;;;;;;;5112480;27;20094;-77
2021/04/30 12:37:15;;;;;;;3.60;2.00;;;;;;;;;;5112550;28;20020;-75
2021/04/30 12:39:44;;;;;;;2.75;2.00;;;;;;;;;;5112117;28;20103;-76
2021/04/30 12:42:10;;;;;;;2.70;1.98;;;;;;;;;;5111832;27;20500;-76
2021/04/30 12:44:36;;;;;;;3.40;2.13;;;;;;;;;;5111738;28;20024;-76
2021/04/30 12:47:05;;;;;;;2.10;1.80;;;;;;;;;;5094537;28;20059;-76
2021/04/30 12:49:37;;;;;;;3.03;2.03;;;;;;;;;;5108447;28;20393;-76
2021/04/30 12:52:05;;;;;;;3.85;2.17;;;;;;;;;;5111467;28;20110;-76
2021/04/30 12:54:32;;;;;;;2.35;2.00;;;;;;;;;;5102366;27;20374;-75
2021/04/30 12:56:59;;;;;;;3.60;1.90;;;;;;;;;;5092886;28;20055;-75
2021/04/30 12:59:26;;;;;;;2.75;1.92;;;;;;;;;;5091362;28;20016;-76
2021/04/30 13:02:08;;;;;;;2.50;1.73;;;;;;;;;;5108273;28;20062;-76
2021/04/30 13:04:41;;;;;;;2.25;1.92;;;;;;;;;;5102228;27;20123;-76
2021/04/30 13:07:07;;;;;;;4.13;1.80;;;;;;;;;;5111615;28;20031;-74
2021/04/30 13:09:34;;;;;;;3.17;2.10;;;;;;;;;;5096303;28;20036;-75
2021/04/30 13:12:08;;;;;;;3.05;1.90;;;;;;;;;;5110170;28;20038;-75
2021/04/30 13:14:46;;;;;;;3.30;2.10;;;;;;;;;;5102803;27;20155;-74
2021/04/30 13:17:16;;;;;;;2.30;1.83;;;;;;;;;;5097214;28;20039;-73
2021/04/30 13:19:42;;;;;;;2.42;1.90;;;;;;;;;;5092175;28;20106;-74
2021/04/30 13:22:15;;;;;;;2.47;1.97;;;;;;;;;;5090763;28;20024;-74
2021/04/30 13:24:42;;;;;;;2.55;2.00;;;;;;;;;;5098530;28;20493;-74
2021/04/30 13:27:10;;;;;;;2.85;2.10;;;;;;;;;;5100336;27;20347;-74
2021/04/30 13:29:37;;;;;;;2.63;1.92;;;;;;;;;;5090959;28;20517;-75
2021/04/30 13:32:08;;;;;;;4.13;2.00;;;;;;;;;;5090918;28;20516;-74
2021/04/30 13:34:36;;;;;;;2.58;1.90;;;;;;;;;;5099690;27;20035;-74
2021/04/30 13:37:04;;;;;;;4.00;2.25;;;;;;;;;;5110715;28;20027;-75
2021/04/30 13:39:29;;;;;;;;;;;;;;;;;;5111464;28;20054;-75
2021/04/30 13:41:56;;;;;;;3.40;2.10;;;;;;;;;;5098368;28;19941;-74
2021/04/30 13:44:22;;;;;;;2.40;1.85;;;;;;;;;;5090549;28;20040;-75
2021/04/30 13:46:57;;;;;;;3.47;2.00;;;;;;;;;;5090935;28;20097;-74
2021/04/30 13:49:42;;;;;;;3.03;1.92;;;;;;;;;;5090749;28;20028;-75
2021/04/30 13:52:08;;;;;;;3.83;2.00;;;;;;;;;;5090330;28;20032;-74
2021/04/30 13:54:34;;;;;;;2.65;1.90;;;;;;;;;;5090578;28;20115;-74
2021/04/30 13:57:00;;;;;;;4.15;2.20;;;;;;;;;;5090630;28;20023;-74
2021/04/30 13:59:33;;;;;;;2.42;1.80;;;;;;;;;;5090706;28;20802;-75
2021/04/30 14:02:00;;;;;;;3.45;2.22;;;;;;;;;;5090523;28;20031;-74
2021/04/30 14:04:26;;;;;;;3.63;2.22;;;;;;;;;;5091224;28;20055;-74
2021/04/30 14:06:52;;;;;;;2.03;1.83;;;;;;;;;;5090563;28;20096;-74
2021/04/30 14:09:18;;;;;;;2.85;1.90;;;;;;;;;;5090421;28;20028;-74
2021/04/30 14:11:44;;;;;;;2.72;1.88;;;;;;;;;;5090369;28;20073;-74
2021/04/30 14:14:10;;;;;;;2.33;1.90;;;;;;;;;;5090455;28;20099;-74
2021/04/30 14:16:36;;;;;;;2.95;1.95;;;;;;;;;;5090447;28;20115;-75
2021/04/30 14:19:01;;;;;;;3.10;2.10;;;;;;;;;;5090099;28;20471;-74
2021/04/30 14:21:27;;;;;;;3.20;1.77;;;;;;;;;;5110424;28;20054;-74
2021/04/30 14:23:53;;;;;;;2.97;2.00;;;;;;;;;;5111093;28;20027;-74
2021/04/30 14:26:20;;;;;;;3.05;2.00;;;;;;;;;;5128136;27;20039;-74
2021/04/30 14:28:46;;;;;;;3.28;1.88;;;;;;;;;;5124256;27;20048;-74
2021/04/30 14:31:12;;;;;;;3.38;2.03;;;;;;;;;;5108621;28;20042;-75
2021/04/30 14:33:38;;;;;;;3.00;2.10;;;;;;;;;;5097855;28;20020;-74
2021/04/30 14:36:05;;;;;;;2.67;1.70;;;;;;;;;;5103136;28;20088;-74
2021/04/30 14:38:37;;;;;;;2.23;1.70;;;;;;;;;;5096950;28;20039;-75
2021/04/30 14:41:03;;;;;;;3.50;1.85;;;;;;;;;;5108084;28;20064;-75
2021/04/30 14:43:29;;;;;;;2.10;1.90;;;;;;;;;;5098923;28;20046;-74